sensor_id;sensor_type;location;lat;lon;timestamp;P1;durP1;ratioP1;P2;durP2;ratioP2
77276;SDS011;66330;52.166;9.978;2023-05-10T00:00:11;2.50;;;2.30;;
77276;SDS011;66330;52.166;9.978;2023-05-10T00:02:37;2.20;;;2.00;;
77276;SDS011;66330;52.166;9.978;2023-05-10T00:05:03;1.60;;;1.50;;
77276;SDS011;66330;52.166;9.978;2023-05-10T00:07:30;2.70;;;2.47;;
77276;SDS011;66330;52.166;9.978;2023-05-10T00:09:55;2.03;;;1.90;;
77276;SDS011;66330;52.166;9.978;2023-05-10T00:12:21;2.00;;;1.90;;
77276;SDS011;66330;52.166;9.978;2023-05-10T00:14:47;2.10;;;1.87;;
77276;SDS011;66330;52.166;9.978;2023-05-10T00:17:12;12.00;;;2.10;;
77276;SDS011;66330;52.166;9.978;2023-05-10T00:19:39;2.23;;;2.00;;
77276;SDS011;66330;52.166;9.978;2023-05-10T00:22:04;2.63;;;2.10;;
77276;SDS011;66330;52.166;9.978;2023-05-10T00:24:30;1.97;;;1.87;;
77276;SDS011;66330;52.166;9.978;2023-05-10T00:26:55;4.77;;;1.90;;
77276;SDS011;66330;52.166;9.978;2023-05-10T00:29:21;2.10;;;1.83;;
77276;SDS011;66330;52.166;9.978;2023-05-10T00:31:46;2.30;;;2.10;;
77276;SDS011;66330;52.166;9.978;2023-05-10T00:34:12;2.60;;;2.40;;
77276;SDS011;66330;52.166;9.978;2023-05-10T00:36:37;2.53;;;1.70;;
77276;SDS011;66330;52.166;9.978;2023-05-10T00:39:03;2.23;;;2.00;;
77276;SDS011;66330;52.166;9.978;2023-05-10T00:41:29;2.30;;;2.10;;
77276;SDS011;66330;52.166;9.978;2023-05-10T00:43:58;2.10;;;2.00;;
77276;SDS011;66330;52.166;9.978;2023-05-10T00:46:23;2.47;;;2.27;;
77276;SDS011;66330;52.166;9.978;2023-05-10T00:48:50;3.23;;;2.63;;
77276;SDS011;66330;52.166;9.978;2023-05-10T00:51:17;3.20;;;2.50;;
77276;SDS011;66330;52.166;9.978;2023-05-10T00:53:43;3.80;;;2.70;;
77276;SDS011;66330;52.166;9.978;2023-05-10T00:56:10;2.10;;;1.90;;
77276;SDS011;66330;52.166;9.978;2023-05-10T00:58:36;2.77;;;2.57;;
77276;SDS011;66330;52.166;9.978;2023-05-10T01:01:01;2.93;;;2.50;;
77276;SDS011;66330;52.166;9.978;2023-05-10T01:03:27;2.43;;;2.23;;
77276;SDS011;66330;52.166;9.978;2023-05-10T01:05:53;2.40;;;2.20;;
77276;SDS011;66330;52.166;9.978;2023-05-10T01:08:20;2.53;;;2.30;;
77276;SDS011;66330;52.166;9.978;2023-05-10T01:10:46;2.37;;;2.17;;
77276;SDS011;66330;52.166;9.978;2023-05-10T01:13:14;2.83;;;2.30;;
77276;SDS011;66330;52.166;9.978;2023-05-10T01:15:57;2.67;;;2.10;;
77276;SDS011;66330;52.166;9.978;2023-05-10T01:18:26;2.30;;;2.00;;
77276;SDS011;66330;52.166;9.978;2023-05-10T01:21:09;2.00;;;1.90;;
77276;SDS011;66330;52.166;9.978;2023-05-10T01:24:12;2.00;;;1.90;;
77276;SDS011;66330;52.166;9.978;2023-05-10T01:34:35;2.90;;;2.70;;
77276;SDS011;66330;52.166;9.978;2023-05-10T01:37:14;2.33;;;2.13;;
77276;SDS011;66330;52.166;9.978;2023-05-10T01:39:46;2.53;;;2.33;;
77276;SDS011;66330;52.166;9.978;2023-05-10T01:42:21;2.70;;;2.50;;
77276;SDS011;66330;52.166;9.978;2023-05-10T01:44:56;2.73;;;2.53;;
77276;SDS011;66330;52.166;9.978;2023-05-10T01:50:09;3.33;;;3.03;;
77276;SDS011;66330;52.166;9.978;2023-05-10T01:52:44;2.80;;;2.60;;
77276;SDS011;66330;52.166;9.978;2023-05-10T01:55:15;3.33;;;3.03;;
77276;SDS011;66330;52.166;9.978;2023-05-10T01:57:43;2.60;;;2.40;;
77276;SDS011;66330;52.166;9.978;2023-05-10T02:00:11;3.07;;;2.80;;
77276;SDS011;66330;52.166;9.978;2023-05-10T02:02:39;3.00;;;2.80;;
77276;SDS011;66330;52.166;9.978;2023-05-10T02:05:07;3.03;;;2.73;;
77276;SDS011;66330;52.166;9.978;2023-05-10T02:07:35;2.70;;;2.50;;
77276;SDS011;66330;52.166;9.978;2023-05-10T02:10:02;2.87;;;2.63;;
77276;SDS011;66330;52.166;9.978;2023-05-10T02:12:31;4.63;;;2.97;;
77276;SDS011;66330;52.166;9.978;2023-05-10T02:14:59;3.83;;;2.87;;
77276;SDS011;66330;52.166;9.978;2023-05-10T02:17:27;2.67;;;2.47;;
77276;SDS011;66330;52.166;9.978;2023-05-10T02:19:55;2.60;;;2.40;;
77276;SDS011;66330;52.166;9.978;2023-05-10T02:22:22;3.50;;;3.20;;
77276;SDS011;66330;52.166;9.978;2023-05-10T02:24:49;2.77;;;2.40;;
77276;SDS011;66330;52.166;9.978;2023-05-10T02:27:15;2.73;;;2.53;;
77276;SDS011;66330;52.166;9.978;2023-05-10T02:29:43;3.10;;;2.80;;
77276;SDS011;66330;52.166;9.978;2023-05-10T02:32:10;2.60;;;2.40;;
77276;SDS011;66330;52.166;9.978;2023-05-10T02:34:36;3.90;;;3.00;;
77276;SDS011;66330;52.166;9.978;2023-05-10T02:37:03;2.70;;;2.47;;
77276;SDS011;66330;52.166;9.978;2023-05-10T02:39:31;3.50;;;3.20;;
77276;SDS011;66330;52.166;9.978;2023-05-10T02:41:57;3.10;;;2.80;;
77276;SDS011;66330;52.166;9.978;2023-05-10T02:44:23;3.10;;;2.80;;
77276;SDS011;66330;52.166;9.978;2023-05-10T02:46:52;3.23;;;2.93;;
77276;SDS011;66330;52.166;9.978;2023-05-10T02:49:20;3.70;;;2.93;;
77276;SDS011;66330;52.166;9.978;2023-05-10T02:51:55;4.37;;;3.47;;
77276;SDS011;66330;52.166;9.978;2023-05-10T02:54:30;4.20;;;3.80;;
77276;SDS011;66330;52.166;9.978;2023-05-10T02:56:58;3.57;;;3.27;;
77276;SDS011;66330;52.166;9.978;2023-05-10T02:59:26;3.17;;;2.97;;
77276;SDS011;66330;52.166;9.978;2023-05-10T03:01:52;3.00;;;2.80;;
77276;SDS011;66330;52.166;9.978;2023-05-10T03:04:18;3.10;;;2.80;;
77276;SDS011;66330;52.166;9.978;2023-05-10T03:06:43;3.90;;;3.13;;
77276;SDS011;66330;52.166;9.978;2023-05-10T03:09:09;2.90;;;2.60;;
77276;SDS011;66330;52.166;9.978;2023-05-10T03:11:55;3.43;;;3.13;;
77276;SDS011;66330;52.166;9.978;2023-05-10T03:14:32;3.03;;;2.83;;
77276;SDS011;66330;52.166;9.978;2023-05-10T03:19:47;2.90;;;2.70;;
77276;SDS011;66330;52.166;9.978;2023-05-10T03:22:17;3.83;;;3.43;;
77276;SDS011;66330;52.166;9.978;2023-05-10T03:24:49;3.60;;;3.30;;
77276;SDS011;66330;52.166;9.978;2023-05-10T03:27:16;3.40;;;3.10;;
77276;SDS011;66330;52.166;9.978;2023-05-10T03:29:43;3.67;;;3.37;;
77276;SDS011;66330;52.166;9.978;2023-05-10T03:32:11;4.00;;;3.33;;
77276;SDS011;66330;52.166;9.978;2023-05-10T03:34:41;3.10;;;2.90;;
77276;SDS011;66330;52.166;9.978;2023-05-10T03:37:07;2.93;;;2.73;;
77276;SDS011;66330;52.166;9.978;2023-05-10T03:39:33;3.50;;;3.20;;
77276;SDS011;66330;52.166;9.978;2023-05-10T03:41:58;3.60;;;3.30;;
77276;SDS011;66330;52.166;9.978;2023-05-10T03:44:24;3.40;;;3.10;;
77276;SDS011;66330;52.166;9.978;2023-05-10T03:46:49;3.37;;;3.07;;
77276;SDS011;66330;52.166;9.978;2023-05-10T03:49:15;3.57;;;3.27;;
77276;SDS011;66330;52.166;9.978;2023-05-10T03:51:40;4.40;;;4.00;;
77276;SDS011;66330;52.166;9.978;2023-05-10T03:54:06;3.90;;;3.60;;
77276;SDS011;66330;52.166;9.978;2023-05-10T03:56:32;3.97;;;3.53;;
77276;SDS011;66330;52.166;9.978;2023-05-10T03:58:57;4.57;;;4.07;;
77276;SDS011;66330;52.166;9.978;2023-05-10T04:01:23;4.50;;;4.10;;
77276;SDS011;66330;52.166;9.978;2023-05-10T04:03:49;4.30;;;4.00;;
77276;SDS011;66330;52.166;9.978;2023-05-10T04:06:14;3.73;;;3.43;;
77276;SDS011;66330;52.166;9.978;2023-05-10T04:08:40;4.43;;;4.03;;
77276;SDS011;66330;52.166;9.978;2023-05-10T04:11:09;3.47;;;3.17;;
77276;SDS011;66330;52.166;9.978;2023-05-10T04:13:36;4.53;;;4.00;;
77276;SDS011;66330;52.166;9.978;2023-05-10T04:16:02;5.27;;;4.77;;
77276;SDS011;66330;52.166;9.978;2023-05-10T04:18:28;4.90;;;4.50;;
77276;SDS011;66330;52.166;9.978;2023-05-10T04:20:53;5.50;;;4.97;;
77276;SDS011;66330;52.166;9.978;2023-05-10T04:23:19;4.70;;;4.30;;
77276;SDS011;66330;52.166;9.978;2023-05-10T04:25:44;3.60;;;3.30;;
77276;SDS011;66330;52.166;9.978;2023-05-10T04:28:10;5.47;;;4.90;;
77276;SDS011;66330;52.166;9.978;2023-05-10T04:30:35;5.57;;;4.40;;
77276;SDS011;66330;52.166;9.978;2023-05-10T04:33:01;4.33;;;3.93;;
77276;SDS011;66330;52.166;9.978;2023-05-10T04:35:27;4.23;;;3.83;;
77276;SDS011;66330;52.166;9.978;2023-05-10T04:37:53;4.63;;;3.73;;
77276;SDS011;66330;52.166;9.978;2023-05-10T04:40:18;4.13;;;3.83;;
77276;SDS011;66330;52.166;9.978;2023-05-10T04:42:44;4.90;;;4.40;;
77276;SDS011;66330;52.166;9.978;2023-05-10T04:45:10;5.17;;;3.67;;
77276;SDS011;66330;52.166;9.978;2023-05-10T04:47:36;6.50;;;3.90;;
77276;SDS011;66330;52.166;9.978;2023-05-10T04:50:02;4.70;;;4.17;;
77276;SDS011;66330;52.166;9.978;2023-05-10T04:52:28;6.63;;;4.30;;
77276;SDS011;66330;52.166;9.978;2023-05-10T04:54:54;3.40;;;3.10;;
77276;SDS011;66330;52.166;9.978;2023-05-10T04:57:19;3.63;;;3.20;;
77276;SDS011;66330;52.166;9.978;2023-05-10T04:59:45;3.67;;;3.37;;
77276;SDS011;66330;52.166;9.978;2023-05-10T05:02:10;3.13;;;2.83;;
77276;SDS011;66330;52.166;9.978;2023-05-10T05:04:36;2.97;;;2.67;;
77276;SDS011;66330;52.166;9.978;2023-05-10T05:07:01;2.90;;;2.57;;
77276;SDS011;66330;52.166;9.978;2023-05-10T05:09:27;3.50;;;2.93;;
77276;SDS011;66330;52.166;9.978;2023-05-10T05:11:53;4.10;;;3.70;;
77276;SDS011;66330;52.166;9.978;2023-05-10T05:14:18;3.27;;;2.83;;
77276;SDS011;66330;52.166;9.978;2023-05-10T05:16:45;3.60;;;3.30;;
77276;SDS011;66330;52.166;9.978;2023-05-10T05:19:11;3.90;;;3.50;;
77276;SDS011;66330;52.166;9.978;2023-05-10T05:21:37;3.10;;;2.87;;
77276;SDS011;66330;52.166;9.978;2023-05-10T05:24:02;2.80;;;2.40;;
77276;SDS011;66330;52.166;9.978;2023-05-10T05:26:28;3.40;;;3.10;;
77276;SDS011;66330;52.166;9.978;2023-05-10T05:28:54;2.57;;;2.13;;
77276;SDS011;66330;52.166;9.978;2023-05-10T05:31:20;3.27;;;2.97;;
77276;SDS011;66330;52.166;9.978;2023-05-10T05:33:45;3.53;;;3.23;;
77276;SDS011;66330;52.166;9.978;2023-05-10T05:36:11;3.37;;;3.10;;
77276;SDS011;66330;52.166;9.978;2023-05-10T05:38:37;3.80;;;3.50;;
77276;SDS011;66330;52.166;9.978;2023-05-10T05:41:02;3.87;;;3.50;;
77276;SDS011;66330;52.166;9.978;2023-05-10T05:43:28;3.83;;;3.43;;
77276;SDS011;66330;52.166;9.978;2023-05-10T05:45:54;4.13;;;3.83;;
77276;SDS011;66330;52.166;9.978;2023-05-10T05:48:20;4.00;;;3.60;;
77276;SDS011;66330;52.166;9.978;2023-05-10T05:50:45;3.07;;;2.83;;
77276;SDS011;66330;52.166;9.978;2023-05-10T05:53:11;3.50;;;3.20;;
77276;SDS011;66330;52.166;9.978;2023-05-10T05:55:37;3.77;;;3.33;;
77276;SDS011;66330;52.166;9.978;2023-05-10T05:58:02;4.10;;;3.53;;
77276;SDS011;66330;52.166;9.978;2023-05-10T06:00:28;3.97;;;3.60;;
77276;SDS011;66330;52.166;9.978;2023-05-10T06:02:53;3.30;;;3.00;;
77276;SDS011;66330;52.166;9.978;2023-05-10T06:05:19;3.40;;;3.10;;
77276;SDS011;66330;52.166;9.978;2023-05-10T06:07:45;4.03;;;3.70;;
77276;SDS011;66330;52.166;9.978;2023-05-10T06:10:11;3.40;;;3.10;;
77276;SDS011;66330;52.166;9.978;2023-05-10T06:12:36;4.10;;;3.70;;
77276;SDS011;66330;52.166;9.978;2023-05-10T06:15:02;3.13;;;2.83;;
77276;SDS011;66330;52.166;9.978;2023-05-10T06:17:28;3.77;;;3.43;;
77276;SDS011;66330;52.166;9.978;2023-05-10T06:19:54;3.33;;;3.03;;
77276;SDS011;66330;52.166;9.978;2023-05-10T06:22:20;3.60;;;3.30;;
77276;SDS011;66330;52.166;9.978;2023-05-10T06:24:47;3.90;;;3.30;;
77276;SDS011;66330;52.166;9.978;2023-05-10T06:27:13;3.70;;;3.17;;
77276;SDS011;66330;52.166;9.978;2023-05-10T06:29:39;3.67;;;3.40;;
77276;SDS011;66330;52.166;9.978;2023-05-10T06:32:04;2.67;;;2.40;;
77276;SDS011;66330;52.166;9.978;2023-05-10T06:34:30;3.50;;;3.20;;
77276;SDS011;66330;52.166;9.978;2023-05-10T06:36:56;3.57;;;3.27;;
77276;SDS011;66330;52.166;9.978;2023-05-10T06:39:22;3.20;;;2.90;;
77276;SDS011;66330;52.166;9.978;2023-05-10T06:41:47;3.60;;;3.30;;
77276;SDS011;66330;52.166;9.978;2023-05-10T06:44:13;3.47;;;3.17;;
77276;SDS011;66330;52.166;9.978;2023-05-10T06:46:38;3.37;;;3.10;;
77276;SDS011;66330;52.166;9.978;2023-05-10T06:49:04;3.70;;;3.40;;
77276;SDS011;66330;52.166;9.978;2023-05-10T06:51:29;3.40;;;3.10;;
77276;SDS011;66330;52.166;9.978;2023-05-10T06:53:55;4.20;;;3.23;;
77276;SDS011;66330;52.166;9.978;2023-05-10T06:56:21;3.93;;;3.23;;
77276;SDS011;66330;52.166;9.978;2023-05-10T06:58:47;4.20;;;3.60;;
77276;SDS011;66330;52.166;9.978;2023-05-10T07:01:13;3.60;;;3.30;;
77276;SDS011;66330;52.166;9.978;2023-05-10T07:03:38;3.27;;;2.97;;
77276;SDS011;66330;52.166;9.978;2023-05-10T07:06:04;4.00;;;3.47;;
77276;SDS011;66330;52.166;9.978;2023-05-10T07:08:31;4.00;;;3.60;;
77276;SDS011;66330;52.166;9.978;2023-05-10T07:11:03;3.80;;;3.23;;
77276;SDS011;66330;52.166;9.978;2023-05-10T07:13:30;2.70;;;2.50;;
77276;SDS011;66330;52.166;9.978;2023-05-10T07:15:56;4.30;;;3.90;;
77276;SDS011;66330;52.166;9.978;2023-05-10T07:18:23;3.30;;;2.70;;
77276;SDS011;66330;52.166;9.978;2023-05-10T07:20:49;3.00;;;2.80;;
77276;SDS011;66330;52.166;9.978;2023-05-10T07:23:14;3.20;;;2.80;;
77276;SDS011;66330;52.166;9.978;2023-05-10T07:25:40;2.97;;;2.60;;
77276;SDS011;66330;52.166;9.978;2023-05-10T07:28:05;2.90;;;2.60;;
77276;SDS011;66330;52.166;9.978;2023-05-10T07:30:31;2.67;;;2.40;;
77276;SDS011;66330;52.166;9.978;2023-05-10T07:32:56;2.63;;;2.43;;
77276;SDS011;66330;52.166;9.978;2023-05-10T07:35:22;2.13;;;1.93;;
77276;SDS011;66330;52.166;9.978;2023-05-10T07:37:47;2.80;;;2.57;;
77276;SDS011;66330;52.166;9.978;2023-05-10T07:40:13;3.00;;;2.70;;
77276;SDS011;66330;52.166;9.978;2023-05-10T07:42:38;2.60;;;2.40;;
77276;SDS011;66330;52.166;9.978;2023-05-10T07:45:04;3.90;;;3.60;;
77276;SDS011;66330;52.166;9.978;2023-05-10T07:47:30;2.93;;;2.70;;
77276;SDS011;66330;52.166;9.978;2023-05-10T07:49:55;3.80;;;3.50;;
77276;SDS011;66330;52.166;9.978;2023-05-10T07:52:21;2.90;;;2.70;;
77276;SDS011;66330;52.166;9.978;2023-05-10T07:54:47;3.67;;;3.13;;
77276;SDS011;66330;52.166;9.978;2023-05-10T07:57:12;2.23;;;2.03;;
77276;SDS011;66330;52.166;9.978;2023-05-10T07:59:40;3.57;;;3.27;;
77276;SDS011;66330;52.166;9.978;2023-05-10T08:02:06;4.03;;;3.67;;
77276;SDS011;66330;52.166;9.978;2023-05-10T08:04:31;2.93;;;2.73;;
77276;SDS011;66330;52.166;9.978;2023-05-10T08:06:57;3.00;;;2.80;;
77276;SDS011;66330;52.166;9.978;2023-05-10T08:09:22;4.50;;;4.10;;
77276;SDS011;66330;52.166;9.978;2023-05-10T08:11:49;3.87;;;3.57;;
77276;SDS011;66330;52.166;9.978;2023-05-10T08:14:15;3.23;;;2.93;;
77276;SDS011;66330;52.166;9.978;2023-05-10T08:16:41;2.83;;;2.63;;
77276;SDS011;66330;52.166;9.978;2023-05-10T08:19:07;1.93;;;1.83;;
77276;SDS011;66330;52.166;9.978;2023-05-10T08:21:32;1.73;;;1.53;;
77276;SDS011;66330;52.166;9.978;2023-05-10T08:23:58;2.17;;;1.97;;
77276;SDS011;66330;52.166;9.978;2023-05-10T08:26:23;2.23;;;2.00;;
77276;SDS011;66330;52.166;9.978;2023-05-10T08:28:49;1.90;;;1.80;;
77276;SDS011;66330;52.166;9.978;2023-05-10T08:31:15;1.90;;;1.60;;
77276;SDS011;66330;52.166;9.978;2023-05-10T08:33:40;1.50;;;1.40;;
77276;SDS011;66330;52.166;9.978;2023-05-10T08:36:06;2.60;;;1.17;;
77276;SDS011;66330;52.166;9.978;2023-05-10T08:38:32;2.10;;;1.20;;
77276;SDS011;66330;52.166;9.978;2023-05-10T08:40:57;1.53;;;1.20;;
77276;SDS011;66330;52.166;9.978;2023-05-10T08:43:27;1.50;;;1.40;;
77276;SDS011;66330;52.166;9.978;2023-05-10T08:45:54;1.63;;;1.50;;
77276;SDS011;66330;52.166;9.978;2023-05-10T08:48:22;1.17;;;1.07;;
77276;SDS011;66330;52.166;9.978;2023-05-10T08:50:48;1.70;;;1.60;;
77276;SDS011;66330;52.166;9.978;2023-05-10T08:53:17;2.00;;;1.33;;
77276;SDS011;66330;52.166;9.978;2023-05-10T08:55:43;1.77;;;1.40;;
77276;SDS011;66330;52.166;9.978;2023-05-10T08:58:09;1.20;;;1.10;;
77276;SDS011;66330;52.166;9.978;2023-05-10T09:00:35;2.53;;;1.73;;
77276;SDS011;66330;52.166;9.978;2023-05-10T09:03:02;2.03;;;1.83;;
77276;SDS011;66330;52.166;9.978;2023-05-10T09:05:30;1.00;;;0.90;;
77276;SDS011;66330;52.166;9.978;2023-05-10T09:07:56;1.10;;;1.00;;
77276;SDS011;66330;52.166;9.978;2023-05-10T09:10:21;0.77;;;0.70;;
77276;SDS011;66330;52.166;9.978;2023-05-10T09:12:50;2.00;;;1.50;;
77276;SDS011;66330;52.166;9.978;2023-05-10T09:15:16;1.23;;;0.90;;
77276;SDS011;66330;52.166;9.978;2023-05-10T09:17:44;0.50;;;0.50;;
77276;SDS011;66330;52.166;9.978;2023-05-10T09:20:10;0.77;;;0.60;;
77276;SDS011;66330;52.166;9.978;2023-05-10T09:22:35;0.50;;;0.40;;
77276;SDS011;66330;52.166;9.978;2023-05-10T09:27:44;0.60;;;0.40;;
77276;SDS011;66330;52.166;9.978;2023-05-10T09:30:11;0.67;;;0.53;;
77276;SDS011;66330;52.166;9.978;2023-05-10T09:32:48;0.70;;;0.70;;
77276;SDS011;66330;52.166;9.978;2023-05-10T09:35:16;0.57;;;0.40;;
77276;SDS011;66330;52.166;9.978;2023-05-10T09:37:44;1.43;;;0.80;;
77276;SDS011;66330;52.166;9.978;2023-05-10T09:40:17;0.93;;;0.70;;
77276;SDS011;66330;52.166;9.978;2023-05-10T09:42:56;0.97;;;0.87;;
77276;SDS011;66330;52.166;9.978;2023-05-10T09:45:22;0.60;;;0.40;;
77276;SDS011;66330;52.166;9.978;2023-05-10T09:47:49;0.80;;;0.80;;
77276;SDS011;66330;52.166;9.978;2023-05-10T09:50:14;1.23;;;0.60;;
77276;SDS011;66330;52.166;9.978;2023-05-10T09:55:12;1.40;;;0.77;;
77276;SDS011;66330;52.166;9.978;2023-05-10T09:57:37;0.60;;;0.50;;
77276;SDS011;66330;52.166;9.978;2023-05-10T10:00:04;0.50;;;0.40;;
77276;SDS011;66330;52.166;9.978;2023-05-10T10:02:31;0.77;;;0.60;;
77276;SDS011;66330;52.166;9.978;2023-05-10T10:04:56;0.70;;;0.40;;
77276;SDS011;66330;52.166;9.978;2023-05-10T10:07:23;1.10;;;1.00;;
77276;SDS011;66330;52.166;9.978;2023-05-10T10:09:52;1.00;;;0.90;;
77276;SDS011;66330;52.166;9.978;2023-05-10T10:12:18;0.97;;;0.90;;
77276;SDS011;66330;52.166;9.978;2023-05-10T10:14:48;1.00;;;1.00;;
77276;SDS011;66330;52.166;9.978;2023-05-10T10:17:16;1.47;;;1.37;;
77276;SDS011;66330;52.166;9.978;2023-05-10T10:19:42;0.90;;;0.87;;
77276;SDS011;66330;52.166;9.978;2023-05-10T10:22:08;1.27;;;1.17;;
77276;SDS011;66330;52.166;9.978;2023-05-10T10:24:36;0.73;;;0.70;;
77276;SDS011;66330;52.166;9.978;2023-05-10T10:27:10;1.10;;;1.00;;
77276;SDS011;66330;52.166;9.978;2023-05-10T10:30:10;1.10;;;1.00;;
77276;SDS011;66330;52.166;9.978;2023-05-10T10:35:49;1.20;;;1.10;;
77276;SDS011;66330;52.166;9.978;2023-05-10T10:38:17;1.40;;;1.30;;
77276;SDS011;66330;52.166;9.978;2023-05-10T10:40:42;1.93;;;1.50;;
77276;SDS011;66330;52.166;9.978;2023-05-10T10:48:38;1.10;;;1.00;;
77276;SDS011;66330;52.166;9.978;2023-05-10T10:51:04;1.00;;;0.93;;
77276;SDS011;66330;52.166;9.978;2023-05-10T10:53:30;2.60;;;1.40;;
77276;SDS011;66330;52.166;9.978;2023-05-10T10:56:09;1.77;;;1.30;;
77276;SDS011;66330;52.166;9.978;2023-05-10T10:58:37;1.30;;;1.20;;
77276;SDS011;66330;52.166;9.978;2023-05-10T11:01:13;2.10;;;1.67;;
77276;SDS011;66330;52.166;9.978;2023-05-10T11:03:39;2.70;;;2.50;;
77276;SDS011;66330;52.166;9.978;2023-05-10T11:06:04;2.30;;;2.10;;
77276;SDS011;66330;52.166;9.978;2023-05-10T11:08:31;2.70;;;1.53;;
77276;SDS011;66330;52.166;9.978;2023-05-10T11:16:09;1.30;;;1.20;;
77276;SDS011;66330;52.166;9.978;2023-05-10T11:18:40;1.87;;;1.70;;
77276;SDS011;66330;52.166;9.978;2023-05-10T11:21:16;1.10;;;1.00;;
77276;SDS011;66330;52.166;9.978;2023-05-10T11:26:21;1.77;;;1.57;;
77276;SDS011;66330;52.166;9.978;2023-05-10T11:28:50;1.03;;;0.93;;
77276;SDS011;66330;52.166;9.978;2023-05-10T11:31:16;1.70;;;1.60;;
77276;SDS011;66330;52.166;9.978;2023-05-10T11:33:43;1.43;;;1.30;;
77276;SDS011;66330;52.166;9.978;2023-05-10T11:36:46;3.60;;;1.63;;
77276;SDS011;66330;52.166;9.978;2023-05-10T11:39:05;3.30;;;2.63;;
77276;SDS011;66330;52.166;9.978;2023-05-10T11:41:31;3.23;;;3.03;;
77276;SDS011;66330;52.166;9.978;2023-05-10T11:43:57;2.10;;;1.90;;
77276;SDS011;66330;52.166;9.978;2023-05-10T11:46:25;1.80;;;1.30;;
77276;SDS011;66330;52.166;9.978;2023-05-10T11:48:54;1.70;;;1.57;;
77276;SDS011;66330;52.166;9.978;2023-05-10T11:51:26;1.30;;;1.10;;
77276;SDS011;66330;52.166;9.978;2023-05-10T11:53:53;0.90;;;0.80;;
77276;SDS011;66330;52.166;9.978;2023-05-10T11:56:19;0.97;;;0.87;;
77276;SDS011;66330;52.166;9.978;2023-05-10T11:58:52;2.00;;;1.40;;
77276;SDS011;66330;52.166;9.978;2023-05-10T12:01:20;1.03;;;0.90;;
77276;SDS011;66330;52.166;9.978;2023-05-10T12:03:47;1.50;;;1.20;;
77276;SDS011;66330;52.166;9.978;2023-05-10T12:06:13;1.40;;;1.30;;
77276;SDS011;66330;52.166;9.978;2023-05-10T12:08:43;1.20;;;1.10;;
77276;SDS011;66330;52.166;9.978;2023-05-10T12:11:11;1.47;;;1.37;;
77276;SDS011;66330;52.166;9.978;2023-05-10T12:13:39;0.93;;;0.90;;
77276;SDS011;66330;52.166;9.978;2023-05-10T12:16:28;1.67;;;1.10;;
77276;SDS011;66330;52.166;9.978;2023-05-10T12:18:56;1.50;;;1.13;;
77276;SDS011;66330;52.166;9.978;2023-05-10T12:21:23;1.33;;;1.23;;
77276;SDS011;66330;52.166;9.978;2023-05-10T12:23:53;1.40;;;1.30;;
77276;SDS011;66330;52.166;9.978;2023-05-10T12:26:25;1.90;;;1.33;;
77276;SDS011;66330;52.166;9.978;2023-05-10T12:28:54;3.63;;;1.30;;
77276;SDS011;66330;52.166;9.978;2023-05-10T12:31:20;1.23;;;1.00;;
77276;SDS011;66330;52.166;9.978;2023-05-10T12:33:46;1.40;;;1.27;;
77276;SDS011;66330;52.166;9.978;2023-05-10T12:36:15;1.00;;;0.90;;
77276;SDS011;66330;52.166;9.978;2023-05-10T12:38:43;1.60;;;1.50;;
77276;SDS011;66330;52.166;9.978;2023-05-10T12:41:13;1.67;;;1.57;;
77276;SDS011;66330;52.166;9.978;2023-05-10T12:43:39;1.37;;;0.90;;
77276;SDS011;66330;52.166;9.978;2023-05-10T12:46:09;1.10;;;1.00;;
77276;SDS011;66330;52.166;9.978;2023-05-10T12:48:36;2.03;;;1.20;;
77276;SDS011;66330;52.166;9.978;2023-05-10T12:51:03;1.53;;;1.33;;
77276;SDS011;66330;52.166;9.978;2023-05-10T12:53:30;2.03;;;1.83;;
77276;SDS011;66330;52.166;9.978;2023-05-10T12:55:56;1.93;;;1.83;;
77276;SDS011;66330;52.166;9.978;2023-05-10T12:58:21;1.70;;;1.60;;
77276;SDS011;66330;52.166;9.978;2023-05-10T13:00:47;1.80;;;1.57;;
77276;SDS011;66330;52.166;9.978;2023-05-10T13:03:13;2.00;;;1.60;;
77276;SDS011;66330;52.166;9.978;2023-05-10T13:05:38;2.13;;;1.63;;
77276;SDS011;66330;52.166;9.978;2023-05-10T13:08:04;1.80;;;1.70;;
77276;SDS011;66330;52.166;9.978;2023-05-10T13:10:30;2.03;;;1.80;;
77276;SDS011;66330;52.166;9.978;2023-05-10T13:12:56;1.93;;;1.73;;
77276;SDS011;66330;52.166;9.978;2023-05-10T13:15:23;2.70;;;2.10;;
77276;SDS011;66330;52.166;9.978;2023-05-10T13:17:49;2.70;;;1.60;;
77276;SDS011;66330;52.166;9.978;2023-05-10T13:20:15;1.93;;;1.57;;
77276;SDS011;66330;52.166;9.978;2023-05-10T13:22:41;1.20;;;1.10;;
77276;SDS011;66330;52.166;9.978;2023-05-10T13:25:10;1.00;;;0.90;;
77276;SDS011;66330;52.166;9.978;2023-05-10T13:27:36;1.20;;;1.10;;
77276;SDS011;66330;52.166;9.978;2023-05-10T13:30:04;1.20;;;1.00;;
77276;SDS011;66330;52.166;9.978;2023-05-10T13:32:30;1.70;;;1.07;;
77276;SDS011;66330;52.166;9.978;2023-05-10T13:34:56;1.00;;;0.90;;
77276;SDS011;66330;52.166;9.978;2023-05-10T13:37:22;1.40;;;1.00;;
77276;SDS011;66330;52.166;9.978;2023-05-10T13:39:47;1.20;;;1.10;;
77276;SDS011;66330;52.166;9.978;2023-05-10T13:42:13;1.00;;;0.80;;
77276;SDS011;66330;52.166;9.978;2023-05-10T13:44:39;0.90;;;0.77;;
77276;SDS011;66330;52.166;9.978;2023-05-10T13:47:05;0.70;;;0.70;;
77276;SDS011;66330;52.166;9.978;2023-05-10T13:49:30;0.80;;;0.60;;
77276;SDS011;66330;52.166;9.978;2023-05-10T13:51:56;1.10;;;0.90;;
77276;SDS011;66330;52.166;9.978;2023-05-10T13:54:22;1.50;;;1.33;;
77276;SDS011;66330;52.166;9.978;2023-05-10T13:56:48;1.10;;;0.80;;
77276;SDS011;66330;52.166;9.978;2023-05-10T13:59:14;1.00;;;0.70;;
77276;SDS011;66330;52.166;9.978;2023-05-10T14:01:40;1.00;;;0.90;;
77276;SDS011;66330;52.166;9.978;2023-05-10T14:04:07;1.00;;;0.83;;
77276;SDS011;66330;52.166;9.978;2023-05-10T14:06:35;0.87;;;0.80;;
77276;SDS011;66330;52.166;9.978;2023-05-10T14:09:01;1.23;;;0.63;;
77276;SDS011;66330;52.166;9.978;2023-05-10T14:11:27;0.73;;;0.73;;
77276;SDS011;66330;52.166;9.978;2023-05-10T14:13:52;1.23;;;1.03;;
77276;SDS011;66330;52.166;9.978;2023-05-10T14:16:18;1.40;;;1.20;;
77276;SDS011;66330;52.166;9.978;2023-05-10T14:18:44;1.07;;;0.83;;
77276;SDS011;66330;52.166;9.978;2023-05-10T14:21:09;1.43;;;0.90;;
77276;SDS011;66330;52.166;9.978;2023-05-10T14:23:35;1.23;;;1.13;;
77276;SDS011;66330;52.166;9.978;2023-05-10T14:26:00;1.23;;;1.13;;
77276;SDS011;66330;52.166;9.978;2023-05-10T14:28:26;0.80;;;0.80;;
77276;SDS011;66330;52.166;9.978;2023-05-10T14:30:52;0.83;;;0.83;;
77276;SDS011;66330;52.166;9.978;2023-05-10T14:33:17;1.20;;;0.70;;
77276;SDS011;66330;52.166;9.978;2023-05-10T14:35:44;1.00;;;0.90;;
77276;SDS011;66330;52.166;9.978;2023-05-10T14:38:10;1.50;;;1.00;;
77276;SDS011;66330;52.166;9.978;2023-05-10T14:40:36;0.80;;;0.80;;
77276;SDS011;66330;52.166;9.978;2023-05-10T14:43:01;1.57;;;1.20;;
77276;SDS011;66330;52.166;9.978;2023-05-10T14:45:27;1.60;;;1.13;;
77276;SDS011;66330;52.166;9.978;2023-05-10T14:47:53;1.30;;;0.90;;
77276;SDS011;66330;52.166;9.978;2023-05-10T14:50:18;2.33;;;1.33;;
77276;SDS011;66330;52.166;9.978;2023-05-10T14:52:44;1.67;;;1.00;;
77276;SDS011;66330;52.166;9.978;2023-05-10T14:55:09;1.77;;;1.20;;
77276;SDS011;66330;52.166;9.978;2023-05-10T14:57:35;1.17;;;1.10;;
77276;SDS011;66330;52.166;9.978;2023-05-10T15:00:01;0.90;;;0.90;;
77276;SDS011;66330;52.166;9.978;2023-05-10T15:02:27;2.03;;;1.80;;
77276;SDS011;66330;52.166;9.978;2023-05-10T15:04:53;1.70;;;1.13;;
77276;SDS011;66330;52.166;9.978;2023-05-10T15:07:18;1.70;;;1.20;;
77276;SDS011;66330;52.166;9.978;2023-05-10T15:09:44;1.07;;;0.97;;
77276;SDS011;66330;52.166;9.978;2023-05-10T15:12:10;1.10;;;1.00;;
77276;SDS011;66330;52.166;9.978;2023-05-10T15:14:36;1.20;;;1.10;;
77276;SDS011;66330;52.166;9.978;2023-05-10T15:17:01;2.70;;;1.90;;
77276;SDS011;66330;52.166;9.978;2023-05-10T15:19:27;1.87;;;1.70;;
77276;SDS011;66330;52.166;9.978;2023-05-10T15:21:54;1.67;;;1.43;;